Time;durP1;ratioP1;P1;durP2;ratioP2;P2;SDS_P1;SDS_P2;PMS_P1;PMS_P2;Temp;Humidity;BMP_temperature;BMP_pressure;BME280_temperature;BME280_humidity;BME280_pressure;Samples;Min_cycle;Max_cycle;Signal;HPM_P1;HPM_P2
2021/08/29 00:00:38;;;;;;;17.80;4.93;;;15.90;99.90;;;;;;4978890;28;20099;-87
2021/08/29 00:03:04;;;;;;;19.40;5.60;;;15.90;99.90;;;;;;4973121;28;20061;-87
2021/08/29 00:05:29;;;;;;;14.63;5.43;;;15.90;99.90;;;;;;4974700;28;20270;-87
2021/08/29 00:07:55;;;;;;;13.73;4.65;;;15.90;99.90;;;;;;4952731;28;20037;-87
2021/08/29 00:10:21;;;;;;;20.10;5.07;;;15.90;99.90;;;;;;4955586;28;20050;-86
2021/08/29 00:12:47;;;;;;;16.05;4.88;;;15.90;99.90;;;;;;4974660;28;20038;-85
2021/08/29 00:15:13;;;;;;;17.60;4.80;;;15.90;99.90;;;;;;4969434;28;20044;-87
2021/08/29 00:17:39;;;;;;;15.75;5.00;;;15.90;99.90;;;;;;4950831;28;20131;-85
2021/08/29 00:20:05;;;;;;;12.65;4.93;;;15.90;99.90;;;;;;4970775;28;20046;-86
2021/08/29 00:22:31;;;;;;;21.00;5.20;;;15.90;99.90;;;;;;4962802;28;20368;-87
2021/08/29 00:24:57;;;;;;;14.20;5.00;;;15.90;99.90;;;;;;4983625;28;20793;-86
2021/08/29 00:27:22;;;;;;;17.38;5.60;;;15.90;99.90;;;;;;4969192;28;20129;-86
2021/08/29 00:29:48;;;;;;;19.33;5.22;;;15.90;99.90;;;;;;4972737;28;20042;-86
2021/08/29 00:32:14;;;;;;;15.93;5.03;;;15.90;99.90;;;;;;4983062;28;20136;-85
2021/08/29 00:34:40;;;;;;;16.45;5.22;;;15.90;99.90;;;;;;4986826;28;20068;-86
2021/08/29 00:37:06;;;;;;;14.52;4.93;;;15.90;99.90;;;;;;4950645;28;20042;-85
2021/08/29 00:39:35;;;;;;;14.20;5.45;;;15.90;99.90;;;;;;4971132;28;20562;-85
2021/08/29 00:42:04;;;;;;;15.80;4.55;;;15.90;99.90;;;;;;4975262;28;20043;-86
2021/08/29 00:44:30;;;;;;;15.55;5.10;;;15.90;99.90;;;;;;4962634;28;20163;-85
2021/08/29 00:46:55;;;;;;;19.42;5.40;;;15.90;99.90;;;;;;4970163;28;20663;-86
2021/08/29 00:49:21;;;;;;;18.15;5.05;;;15.90;99.90;;;;;;4967792;28;20046;-86
2021/08/29 00:51:58;;;;;;;18.58;4.75;;;15.90;99.90;;;;;;4972463;28;20506;-86
2021/08/29 00:54:27;;;;;;;16.55;5.00;;;15.90;99.90;;;;;;4991859;28;20045;-86
2021/08/29 00:56:53;;;;;;;12.75;4.93;;;15.90;99.90;;;;;;4968176;28;20103;-86
2021/08/29 00:59:19;;;;;;;17.45;4.70;;;15.90;99.90;;;;;;4947781;28;20045;-87
2021/08/29 01:01:55;;;;;;;17.40;4.80;;;15.90;99.90;;;;;;4955367;28;20038;-85
2021/08/29 01:04:28;;;;;;;16.20;5.07;;;15.90;99.90;;;;;;4972186;28;20040;-87
2021/08/29 01:07:08;;;;;;;15.25;5.10;;;15.90;99.90;;;;;;4974554;28;20063;-85
2021/08/29 01:09:38;;;;;;;14.45;4.90;;;15.90;99.90;;;;;;4979781;28;20497;-85
2021/08/29 01:12:06;;;;;;;18.50;4.93;;;15.90;99.90;;;;;;4974357;28;20511;-85
2021/08/29 01:14:34;;;;;;;18.17;5.20;;;15.90;99.90;;;;;;4988510;28;20412;-86
2021/08/29 01:17:03;;;;;;;19.80;5.85;;;15.90;99.90;;;;;;4973151;28;20409;-87
2021/08/29 01:19:49;;;;;;;13.93;5.03;;;15.80;99.90;;;;;;4977040;28;20038;-87
2021/08/29 01:22:15;;;;;;;16.30;4.80;;;15.90;99.90;;;;;;4970091;28;20059;-86
2021/08/29 01:24:42;;;;;;;21.15;5.57;;;15.90;99.90;;;;;;4961277;28;20314;-86
2021/08/29 01:27:17;;;;;;;14.18;5.47;;;15.90;99.90;;;;;;4973375;28;20046;-85
2021/08/29 01:29:43;;;;;;;19.88;5.35;;;15.90;99.90;;;;;;4972633;28;20564;-86
2021/08/29 01:32:10;;;;;;;15.68;5.47;;;15.90;99.90;;;;;;4969147;28;20096;-86
2021/08/29 01:34:36;;;;;;;19.33;5.85;;;15.90;99.90;;;;;;4957056;28;20050;-87
2021/08/29 01:37:02;;;;;;;19.95;6.00;;;15.90;99.90;;;;;;4967450;28;20488;-85
2021/08/29 01:39:29;;;;;;;18.70;5.53;;;15.90;99.90;;;;;;4975452;28;20104;-86
2021/08/29 01:41:55;;;;;;;15.80;5.32;;;15.90;99.90;;;;;;4972329;28;20579;-86
2021/08/29 01:44:22;;;;;;;15.38;5.00;;;15.90;99.90;;;;;;4970861;28;20400;-87
2021/08/29 01:46:49;;;;;;;12.82;5.68;;;15.90;99.90;;;;;;4969980;28;20046;-86
2021/08/29 01:49:16;;;;;;;17.90;6.05;;;15.90;99.90;;;;;;4960134;28;20510;-86
2021/08/29 01:51:42;;;;;;;15.70;5.20;;;15.90;99.90;;;;;;4961519;28;20046;-86
2021/08/29 01:54:08;;;;;;;19.65;5.40;;;15.90;99.90;;;;;;4994109;28;20104;-86
2021/08/29 01:56:58;;;;;;;20.15;5.63;;;15.90;99.90;;;;;;4969318;28;20046;-86
2021/08/29 01:59:24;;;;;;;16.85;5.63;;;15.90;99.90;;;;;;4984551;28;20041;-87
2021/08/29 02:01:50;;;;;;;17.80;6.05;;;15.90;99.90;;;;;;4963710;28;20064;-87
2021/08/29 02:04:15;;;;;;;17.17;5.30;;;15.90;99.90;;;;;;4988355;28;20459;-86
2021/08/29 02:06:46;;;;;;;16.33;5.07;;;15.90;99.90;;;;;;4976455;28;20050;-86
2021/08/29 02:09:13;;;;;;;19.92;5.18;;;15.90;99.90;;;;;;4968063;28;20045;-87
2021/08/29 02:11:51;;;;;;;15.30;5.20;;;15.90;99.90;;;;;;4955936;28;20108;-87
2021/08/29 02:14:27;;;;;;;21.70;5.68;;;15.90;99.90;;;;;;4972866;28;20047;-86
2021/08/29 02:16:54;;;;;;;18.80;4.80;;;15.90;99.90;;;;;;4987366;28;20133;-87
2021/08/29 02:19:23;;;;;;;16.98;4.93;;;15.90;99.90;;;;;;4962942;28;20038;-87
2021/08/29 02:21:50;;;;;;;15.63;5.15;;;15.90;99.90;;;;;;4991952;28;21119;-87
2021/08/29 02:24:20;;;;;;;18.02;4.50;;;16.00;99.90;;;;;;4936252;28;20046;-86
2021/08/29 02:26:46;;;;;;;17.67;5.32;;;15.90;99.90;;;;;;4969615;28;20042;-87
2021/08/29 02:29:12;;;;;;;12.52;4.35;;;15.90;99.90;;;;;;4938845;28;20060;-87
2021/08/29 02:31:39;;;;;;;13.23;4.35;;;15.90;99.90;;;;;;4969890;28;20041;-88
2021/08/29 02:34:04;;;;;;;15.52;5.40;;;15.90;99.90;;;;;;4962430;28;20502;-85
2021/08/29 02:36:34;;;;;;;18.33;5.68;;;15.90;99.90;;;;;;4953110;28;20044;-87
2021/08/29 02:39:01;;;;;;;19.25;4.95;;;16.00;99.90;;;;;;4956773;28;20144;-87
2021/08/29 02:41:27;;;;;;;14.02;4.32;;;16.00;99.90;;;;;;4990796;28;20129;-87
2021/08/29 02:43:54;;;;;;;11.38;4.80;;;16.00;99.90;;;;;;4969407;28;20141;-86
2021/08/29 02:46:20;;;;;;;18.25;4.70;;;16.00;99.90;;;;;;4967834;28;20876;-87
2021/08/29 02:48:46;;;;;;;15.85;5.13;;;16.00;99.90;;;;;;4982400;28;20157;-87
2021/08/29 02:51:13;;;;;;;16.05;4.45;;;15.90;99.90;;;;;;4965741;28;20137;-89
2021/08/29 02:53:44;;;;;;;13.43;4.13;;;15.90;99.90;;;;;;4967977;28;20045;-86
2021/08/29 02:56:11;;;;;;;13.38;4.78;;;15.90;99.90;;;;;;4967433;28;20043;-87
2021/08/29 02:58:38;;;;;;;21.15;4.50;;;15.90;99.90;;;;;;4953176;28;20050;-87
2021/08/29 03:01:04;;;;;;;15.20;4.53;;;15.90;99.90;;;;;;4974218;28;20034;-86
2021/08/29 03:03:30;;;;;;;14.05;4.88;;;15.90;99.90;;;;;;4954721;28;20041;-88
2021/08/29 03:05:55;;;;;;;15.18;5.20;;;15.90;99.90;;;;;;4968584;28;20044;-86
2021/08/29 03:08:21;;;;;;;16.15;4.90;;;15.90;99.90;;;;;;4969893;28;20038;-87
2021/08/29 03:10:48;;;;;;;12.23;4.70;;;15.90;99.90;;;;;;4967714;28;20484;-87
2021/08/29 03:13:15;;;;;;;16.02;4.55;;;15.90;99.90;;;;;;4987583;28;20053;-87
2021/08/29 03:15:41;;;;;;;11.98;4.47;;;15.90;99.90;;;;;;4996657;28;20045;-87
2021/08/29 03:18:07;;;;;;;16.08;4.28;;;16.00;99.90;;;;;;4955086;28;20100;-87
2021/08/29 03:20:34;;;;;;;17.95;5.38;;;15.90;99.90;;;;;;4969521;28;20073;-87
2021/08/29 03:23:00;;;;;;;13.27;4.55;;;15.90;99.90;;;;;;4965448;28;20063;-86
2021/08/29 03:25:27;;;;;;;14.10;4.25;;;15.90;99.90;;;;;;4969155;28;20049;-88
2021/08/29 03:27:54;;;;;;;20.65;4.50;;;15.90;99.90;;;;;;4938775;28;20401;-87
2021/08/29 03:30:19;;;;;;;11.43;3.85;;;15.90;99.90;;;;;;4957230;28;20049;-87
2021/08/29 03:32:45;;;;;;;16.00;4.45;;;15.90;99.90;;;;;;4951497;28;20065;-87
2021/08/29 03:35:13;;;;;;;11.73;4.15;;;15.90;99.90;;;;;;4938635;28;20054;-87
2021/08/29 03:37:44;;;;;;;11.95;4.07;;;15.90;99.90;;;;;;4968860;28;20443;-87
2021/08/29 03:40:11;;;;;;;14.43;4.28;;;15.90;99.90;;;;;;4990509;28;20401;-87
2021/08/29 03:42:38;;;;;;;13.10;3.92;;;15.90;99.90;;;;;;4971425;28;20037;-86
2021/08/29 03:45:06;;;;;;;13.45;5.00;;;15.90;99.90;;;;;;4973483;28;20132;-86
2021/08/29 03:47:34;;;;;;;12.50;4.03;;;15.90;99.90;;;;;;4969422;28;20143;-87
2021/08/29 03:50:00;;;;;;;11.38;3.72;;;15.90;99.90;;;;;;4962710;28;20190;-88
2021/08/29 03:52:26;;;;;;;12.25;3.80;;;15.90;99.90;;;;;;4969893;28;20042;-87
2021/08/29 03:54:55;;;;;;;10.48;3.95;;;15.90;99.90;;;;;;4968659;28;20095;-88
2021/08/29 03:57:21;;;;;;;14.43;3.95;;;15.90;99.90;;;;;;4969523;28;20830;-88
2021/08/29 03:59:47;;;;;;;13.50;3.90;;;15.90;99.90;;;;;;4970143;28;20532;-87
2021/08/29 04:02:20;;;;;;;12.10;4.00;;;15.90;99.90;;;;;;4969431;28;20145;-88
2021/08/29 04:04:45;;;;;;;10.77;3.63;;;15.90;99.90;;;;;;4970844;28;20697;-87
2021/08/29 04:07:16;;;;;;;13.05;4.07;;;15.80;99.90;;;;;;4985033;28;20045;-88
2021/08/29 04:09:43;;;;;;;12.07;3.95;;;15.80;99.90;;;;;;4968830;28;20049;-88
2021/08/29 04:12:13;;;;;;;12.63;4.03;;;15.80;99.90;;;;;;4976046;28;20584;-87
2021/08/29 04:14:43;;;;;;;9.52;3.90;;;15.80;99.90;;;;;;4956286;28;20046;-89
2021/08/29 04:17:14;;;;;;;15.43;3.95;;;15.90;99.90;;;;;;4986021;28;20042;-89
2021/08/29 04:19:42;;;;;;;12.18;3.85;;;15.80;99.90;;;;;;4970536;28;20077;-87
2021/08/29 04:22:26;;;;;;;11.75;3.58;;;15.80;99.90;;;;;;4991814;28;20041;-88
2021/08/29 04:24:57;;;;;;;15.85;4.50;;;15.80;99.90;;;;;;4988478;28;20040;-88
2021/08/29 04:27:23;;;;;;;17.80;4.63;;;15.90;99.90;;;;;;4990742;28;20073;-88
2021/08/29 04:29:49;;;;;;;11.55;3.70;;;15.80;99.90;;;;;;5004554;28;20045;-88
2021/08/29 04:32:17;;;;;;;14.88;4.30;;;15.80;99.90;;;;;;4986938;28;20112;-88
2021/08/29 04:34:43;;;;;;;12.60;3.78;;;15.80;99.90;;;;;;5009025;28;20108;-87
2021/08/29 04:37:09;;;;;;;13.38;4.00;;;15.80;99.90;;;;;;4989086;28;20038;-87
2021/08/29 04:39:36;;;;;;;18.25;3.85;;;15.80;99.90;;;;;;5007893;28;20026;-88
2021/08/29 04:42:03;;;;;;;17.85;4.47;;;15.80;99.90;;;;;;5003657;28;20034;-88
2021/08/29 04:44:29;;;;;;;11.20;3.70;;;15.80;99.90;;;;;;5006416;28;20069;-88
2021/08/29 04:46:54;;;;;;;12.23;3.70;;;15.80;99.90;;;;;;4987976;28;20104;-90
2021/08/29 04:49:20;;;;;;;14.70;3.80;;;15.80;99.90;;;;;;4986833;28;20029;-89
2021/08/29 04:51:46;;;;;;;13.48;3.92;;;15.80;99.90;;;;;;4974047;28;20412;-88
2021/08/29 04:54:12;;;;;;;11.00;3.88;;;15.80;99.90;;;;;;4990281;28;22027;-89
2021/08/29 04:56:37;;;;;;;12.13;3.55;;;15.80;99.90;;;;;;4974078;28;20125;-89
2021/08/29 04:59:03;;;;;;;16.13;4.35;;;15.80;99.90;;;;;;4991373;28;20034;-87
2021/08/29 05:01:31;;;;;;;16.30;4.07;;;15.80;99.90;;;;;;4988821;28;20080;-86
2021/08/29 05:03:59;;;;;;;18.77;4.85;;;15.80;99.90;;;;;;4961169;28;20092;-87
2021/08/29 05:06:42;;;;;;;13.27;4.57;;;15.70;99.90;;;;;;4986578;28;20049;-87
2021/08/29 05:09:09;;;;;;;15.18;5.43;;;15.70;99.90;;;;;;4938568;28;20093;-85
2021/08/29 05:11:34;;;;;;;12.93;4.95;;;15.70;99.90;;;;;;4922995;28;20438;-87
2021/08/29 05:14:00;;;;;;;7.53;4.03;;;15.60;99.90;;;;;;4955898;28;20077;-90
2021/08/29 05:16:26;;;;;;;11.23;4.65;;;15.50;99.90;;;;;;4940016;28;20038;-87
2021/08/29 05:18:51;;;;;;;9.50;4.55;;;15.40;99.90;;;;;;4955684;28;20548;-88
2021/08/29 05:21:17;;;;;;;15.10;4.80;;;15.30;99.90;;;;;;4935843;28;20061;-88
2021/08/29 05:23:43;;;;;;;9.98;4.47;;;15.20;99.90;;;;;;4958038;28;22610;-90
2021/08/29 05:26:09;;;;;;;10.93;5.05;;;15.10;99.90;;;;;;4958436;28;20067;-90
2021/08/29 05:28:34;;;;;;;14.48;4.15;;;15.10;99.90;;;;;;4958876;28;20537;-89
2021/08/29 05:31:00;;;;;;;13.52;4.20;;;15.00;99.90;;;;;;4958201;28;20128;-88
2021/08/29 05:33:26;;;;;;;12.23;4.50;;;15.00;99.90;;;;;;4963780;28;20417;-88
2021/08/29 05:35:52;;;;;;;8.90;3.80;;;15.00;99.90;;;;;;4962477;28;20098;-88
2021/08/29 05:38:22;;;;;;;10.70;4.10;;;15.00;99.90;;;;;;4952188;28;20045;-90
2021/08/29 05:40:48;;;;;;;7.90;3.88;;;15.00;99.90;;;;;;4956316;28;20068;-86
2021/08/29 05:43:14;;;;;;;14.52;3.97;;;14.90;99.90;;;;;;4995580;28;20125;-89
2021/08/29 05:45:40;;;;;;;14.40;4.03;;;14.90;99.90;;;;;;4959636;28;20038;-89
2021/08/29 05:48:06;;;;;;;12.90;4.28;;;14.90;99.90;;;;;;4977473;28;20033;-89
2021/08/29 05:50:31;;;;;;;15.88;4.50;;;14.90;99.90;;;;;;4963860;28;20038;-89
2021/08/29 05:52:57;;;;;;;17.92;4.57;;;14.90;99.90;;;;;;4958611;28;20420;-91
2021/08/29 05:55:26;;;;;;;16.55;4.60;;;14.90;99.90;;;;;;4956290;28;20089;-88
2021/08/29 05:57:52;;;;;;;14.93;4.70;;;14.90;99.90;;;;;;4957886;28;20493;-87
2021/08/29 06:00:19;;;;;;;16.23;4.05;;;14.80;99.90;;;;;;4954238;28;20049;-90
2021/08/29 06:02:45;;;;;;;23.35;4.45;;;14.90;99.90;;;;;;4980620;28;20050;-88
2021/08/29 06:05:11;;;;;;;15.00;4.53;;;14.80;99.90;;;;;;4987543;28;20042;-89
2021/08/29 06:07:37;;;;;;;19.70;4.97;;;14.80;99.90;;;;;;4982379;28;20553;-89
2021/08/29 06:10:03;;;;;;;17.20;4.40;;;14.80;99.90;;;;;;4988785;28;20112;-89
2021/08/29 06:12:29;;;;;;;14.23;4.75;;;14.90;99.90;;;;;;4987326;28;20041;-89
2021/08/29 06:14:55;;;;;;;20.70;4.55;;;14.90;99.90;;;;;;4989317;28;20041;-89
2021/08/29 06:17:21;;;;;;;14.50;4.20;;;14.90;99.90;;;;;;4974207;28;20405;-90
2021/08/29 06:19:46;;;;;;;13.65;4.10;;;14.90;99.90;;;;;;4972906;28;20063;-89
2021/08/29 06:22:12;;;;;;;17.42;5.18;;;14.90;99.90;;;;;;4972015;28;20040;-88
2021/08/29 06:24:38;;;;;;;22.98;4.82;;;14.90;99.90;;;;;;4989511;28;20072;-89
2021/08/29 06:27:04;;;;;;;13.75;4.13;;;14.90;99.90;;;;;;4977606;28;20344;-87
2021/08/29 06:29:29;;;;;;;14.75;3.97;;;14.90;99.90;;;;;;5004168;28;20041;-87
2021/08/29 06:31:56;;;;;;;12.80;3.95;;;14.90;99.90;;;;;;5001541;28;20042;-88
2021/08/29 06:34:22;;;;;;;14.50;4.07;;;14.90;99.90;;;;;;4984866;28;20203;-90
2021/08/29 06:36:48;;;;;;;12.43;4.03;;;14.90;99.90;;;;;;4972976;28;20037;-88
2021/08/29 06:39:14;;;;;;;13.27;4.10;;;14.90;99.90;;;;;;4976571;28;20475;-87
2021/08/29 06:41:40;;;;;;;16.15;4.15;;;15.00;99.90;;;;;;4992406;28;20080;-87
2021/08/29 06:44:06;;;;;;;10.88;3.72;;;15.00;99.90;;;;;;4976233;28;20046;-89
2021/08/29 06:46:32;;;;;;;9.95;3.53;;;15.00;99.90;;;;;;4998146;28;20488;-90
2021/08/29 06:48:58;;;;;;;15.15;3.50;;;15.00;99.90;;;;;;4992422;28;20157;-89
2021/08/29 06:51:24;;;;;;;12.65;4.32;;;15.00;99.90;;;;;;4992878;28;20045;-90
2021/08/29 06:53:50;;;;;;;14.73;3.83;;;15.10;99.90;;;;;;4992450;28;20077;-89
2021/08/29 06:56:16;;;;;;;14.93;3.92;;;15.10;99.90;;;;;;4980301;28;20069;-89
2021/08/29 06:58:42;;;;;;;17.17;3.58;;;15.10;99.90;;;;;;4972540;28;20037;-90
2021/08/29 07:01:07;;;;;;;15.18;3.42;;;15.10;99.90;;;;;;4974621;28;20034;-86
2021/08/29 07:03:33;;;;;;;15.13;3.58;;;15.10;99.90;;;;;;4998212;28;20064;-88
2021/08/29 07:05:59;;;;;;;19.58;4.35;;;15.20;99.90;;;;;;4973087;28;20037;-87
2021/08/29 07:08:25;;;;;;;12.93;3.53;;;15.20;99.90;;;;;;4991961;28;20034;-88
2021/08/29 07:10:50;;;;;;;19.30;3.90;;;15.20;99.90;;;;;;4992653;28;20044;-88
2021/08/29 07:13:16;;;;;;;12.88;3.78;;;15.20;99.90;;;;;;4976437;28;20400;-87
2021/08/29 07:15:42;;;;;;;14.68;3.78;;;15.30;99.90;;;;;;4986814;28;20136;-87
2021/08/29 07:18:08;;;;;;;14.57;3.88;;;15.30;99.90;;;;;;4970513;28;20054;-86
2021/08/29 07:20:33;;;;;;;20.45;3.80;;;15.30;99.90;;;;;;4970747;28;20503;-88
2021/08/29 07:22:59;;;;;;;11.32;3.65;;;15.30;99.90;;;;;;4975745;28;20045;-86
2021/08/29 07:25:25;;;;;;;12.73;3.00;;;15.30;99.90;;;;;;4969564;28;20099;-86
2021/08/29 07:27:51;;;;;;;13.20;3.72;;;15.30;99.90;;;;;;4984902;28;20046;-88
2021/08/29 07:30:16;;;;;;;9.27;3.85;;;15.30;99.90;;;;;;4971788;28;20514;-86
2021/08/29 07:32:42;;;;;;;15.93;4.65;;;15.40;99.90;;;;;;4970848;28;20135;-85
2021/08/29 07:35:08;;;;;;;26.67;4.72;;;15.40;99.90;;;;;;4971371;28;20041;-85
2021/08/29 07:37:34;;;;;;;18.45;4.57;;;15.40;99.90;;;;;;5002545;28;20130;-87
2021/08/29 07:40:00;;;;;;;14.18;4.63;;;15.40;99.90;;;;;;4990112;28;20077;-85
2021/08/29 07:42:25;;;;;;;14.38;4.90;;;15.40;99.90;;;;;;4987496;28;20034;-86
2021/08/29 07:44:51;;;;;;;12.70;4.88;;;15.40;99.90;;;;;;4953913;28;20045;-86
2021/08/29 07:47:17;;;;;;;13.00;4.40;;;15.40;99.90;;;;;;4986442;28;20115;-86
2021/08/29 07:49:43;;;;;;;14.07;5.32;;;15.50;99.90;;;;;;4971322;28;20077;-86
2021/08/29 07:52:08;;;;;;;17.10;6.22;;;15.50;99.90;;;;;;4988363;28;20415;-86
2021/08/29 07:54:34;;;;;;;19.80;6.35;;;15.60;99.90;;;;;;4990701;28;20485;-85
2021/08/29 07:57:00;;;;;;;18.40;6.50;;;15.60;99.90;;;;;;4987314;28;20504;-87
2021/08/29 07:59:26;;;;;;;24.35;5.95;;;15.70;99.90;;;;;;4983339;28;20035;-87
2021/08/29 08:01:51;;;;;;;18.10;6.40;;;15.70;99.90;;;;;;4985703;28;20061;-87
2021/08/29 08:04:17;;;;;;;18.20;5.43;;;15.80;99.90;;;;;;4988636;28;20034;-87
2021/08/29 08:06:43;;;;;;;17.35;6.53;;;15.90;99.90;;;;;;4985713;28;20526;-86
2021/08/29 08:09:08;;;;;;;14.57;5.68;;;15.90;99.90;;;;;;4970458;28;20056;-87
2021/08/29 08:11:34;;;;;;;23.63;6.43;;;15.90;99.90;;;;;;4971543;28;20045;-87
2021/08/29 08:14:00;;;;;;;15.70;6.10;;;15.90;99.90;;;;;;5004421;28;20623;-86
2021/08/29 08:16:26;;;;;;;14.35;5.80;;;16.00;99.90;;;;;;4985764;28;20423;-87
2021/08/29 08:18:52;;;;;;;19.17;6.50;;;16.00;99.90;;;;;;4979298;28;20591;-85
2021/08/29 08:21:19;;;;;;;15.00;6.32;;;16.10;99.90;;;;;;4987783;28;20393;-87
2021/08/29 08:23:46;;;;;;;18.42;7.07;;;16.10;99.90;;;;;;4968401;28;20124;-86
2021/08/29 08:26:11;;;;;;;24.48;7.30;;;16.10;99.90;;;;;;4968545;28;20034;-83
2021/08/29 08:28:37;;;;;;;20.85;7.10;;;16.20;99.90;;;;;;4967679;28;20132;-82
2021/08/29 08:31:15;;;;;;;22.58;6.85;;;16.20;99.90;;;;;;4984358;28;20287;-87
2021/08/29 08:33:51;;;;;;;18.42;6.13;;;16.20;99.90;;;;;;4970018;28;20057;-87
2021/08/29 08:36:17;;;;;;;22.48;6.82;;;16.20;99.90;;;;;;4968043;28;20041;-86
2021/08/29 08:38:43;;;;;;;22.42;6.75;;;16.20;99.90;;;;;;4985433;28;20044;-87
2021/08/29 08:41:09;;;;;;;26.00;7.03;;;16.20;99.90;;;;;;5001760;28;20173;-87
2021/08/29 08:43:35;;;;;;;33.50;6.93;;;16.20;99.90;;;;;;4985052;28;20034;-88
2021/08/29 08:46:02;;;;;;;23.52;7.38;;;16.20;99.90;;;;;;4986568;28;20121;-88
2021/08/29 08:48:29;;;;;;;24.55;7.38;;;16.20;99.90;;;;;;4984568;28;20103;-87
2021/08/29 08:50:58;;;;;;;18.10;7.25;;;16.20;99.90;;;;;;4981799;28;20251;-88
2021/08/29 08:53:24;;;;;;;13.85;6.50;;;16.20;99.90;;;;;;4997472;28;20489;-85
2021/08/29 08:55:52;;;;;;;12.63;5.20;;;16.20;99.90;;;;;;4984194;28;20519;-86
2021/08/29 08:58:18;;;;;;;19.75;5.57;;;16.20;99.90;;;;;;4986938;28;20037;-87
2021/08/29 09:00:46;;;;;;;16.08;5.70;;;16.10;99.90;;;;;;4968450;28;20093;-87
2021/08/29 09:03:12;;;;;;;15.45;5.80;;;16.10;99.90;;;;;;4965795;28;20038;-86
2021/08/29 09:05:39;;;;;;;14.45;5.50;;;16.10;99.90;;;;;;4980090;28;20233;-87
2021/08/29 09:08:09;;;;;;;12.63;5.68;;;16.00;99.90;;;;;;4969852;28;20389;-87
2021/08/29 09:10:35;;;;;;;13.10;4.93;;;16.00;99.90;;;;;;4965867;28;20046;-86
2021/08/29 09:13:56;;;;;;;11.93;4.95;;;16.00;99.90;;;;;;4983738;28;20044;-89
2021/08/29 09:16:25;;;;;;;11.57;4.65;;;16.00;99.90;;;;;;4930116;28;20138;-88
2021/08/29 09:18:52;;;;;;;10.73;4.82;;;15.90;99.90;;;;;;4987034;28;20053;-90
2021/08/29 09:21:22;;;;;;;14.18;5.10;;;15.90;99.90;;;;;;5002471;28;20136;-89
2021/08/29 09:23:48;;;;;;;13.68;5.72;;;15.90;99.90;;;;;;4986935;28;20034;-89
2021/08/29 09:26:17;;;;;;;15.82;5.53;;;15.90;99.90;;;;;;5001451;28;20121;-89
2021/08/29 09:28:42;;;;;;;13.95;5.75;;;16.00;99.90;;;;;;4989597;28;20121;-89
2021/08/29 09:31:09;;;;;;;24.13;5.90;;;16.00;99.90;;;;;;4986449;28;20132;-87
2021/08/29 09:33:34;;;;;;;11.15;5.03;;;16.00;99.90;;;;;;5000072;28;20034;-89
2021/08/29 09:36:00;;;;;;;10.90;4.63;;;16.10;99.90;;;;;;4970237;28;20447;-88
2021/08/29 09:38:26;;;;;;;8.73;4.80;;;16.00;99.90;;;;;;5002741;28;20069;-87
2021/08/29 09:40:52;;;;;;;11.32;5.28;;;16.10;99.90;;;;;;4984341;28;20236;-90
2021/08/29 09:43:35;;;;;;;8.30;4.60;;;16.10;99.90;;;;;;4982794;28;20749;-88
2021/08/29 09:46:08;;;;;;;14.27;5.63;;;16.10;99.90;;;;;;4983526;28;20036;-88
2021/08/29 09:48:33;;;;;;;;;;;16.10;99.90;;;;;;4966210;28;20282;-89
2021/08/29 09:50:59;;;;;;;17.92;5.70;;;16.10;99.90;;;;;;4988757;28;19917;-91
2021/08/29 09:53:25;;;;;;;13.10;5.05;;;16.20;99.90;;;;;;4986929;28;20034;-90
2021/08/29 09:55:51;;;;;;;9.35;4.93;;;16.20;99.90;;;;;;4984320;28;20306;-88
2021/08/29 09:58:27;;;;;;;19.35;6.50;;;16.20;99.90;;;;;;4959228;28;20586;-89
2021/08/29 10:01:13;;;;;;;19.85;6.35;;;16.30;99.90;;;;;;5000214;28;20038;-89
2021/08/29 10:03:43;;;;;;;14.20;5.20;;;16.30;99.90;;;;;;4985835;28;20125;-89
2021/08/29 10:06:22;;;;;;;11.52;5.63;;;16.30;99.90;;;;;;4988183;28;20068;-90
2021/08/29 10:08:59;;;;;;;14.52;5.63;;;16.30;99.90;;;;;;4993645;28;20408;-89
2021/08/29 10:11:27;;;;;;;15.35;4.88;;;16.40;99.90;;;;;;4983258;28;20388;-87
2021/08/29 10:14:12;;;;;;;9.10;4.95;;;16.40;99.90;;;;;;4999261;28;20052;-89
2021/08/29 10:16:43;;;;;;;17.30;5.20;;;16.30;99.90;;;;;;4988119;28;20524;-88
2021/08/29 10:19:17;;;;;;;10.95;5.18;;;16.30;99.90;;;;;;4988464;28;20074;-92
2021/08/29 10:21:43;;;;;;;14.55;5.05;;;16.30;99.90;;;;;;4993607;28;20038;-89
2021/08/29 10:24:12;;;;;;;11.55;4.40;;;16.30;99.90;;;;;;4957838;28;20036;-87
2021/08/29 10:26:41;;;;;;;12.93;4.82;;;16.40;99.90;;;;;;4985264;28;20092;-89
2021/08/29 10:29:11;;;;;;;12.77;5.18;;;16.40;99.90;;;;;;4985470;28;20583;-87
2021/08/29 10:31:49;;;;;;;15.73;5.25;;;16.40;99.90;;;;;;4988093;28;20527;-89
2021/08/29 10:34:16;;;;;;;13.30;4.78;;;16.40;99.90;;;;;;4997498;28;20397;-86
2021/08/29 10:37:00;;;;;;;10.00;4.75;;;16.40;99.90;;;;;;4977883;28;20042;-89
2021/08/29 10:39:26;;;;;;;9.15;4.90;;;16.40;99.90;;;;;;4972734;28;20128;-88
2021/08/29 10:41:53;;;;;;;12.15;4.20;;;16.50;99.90;;;;;;4953849;28;20045;-87
2021/08/29 10:44:21;;;;;;;8.75;4.30;;;16.50;99.90;;;;;;4969834;28;20096;-88
2021/08/29 10:46:48;;;;;;;11.50;4.72;;;16.50;99.90;;;;;;4984133;28;20380;-86
2021/08/29 10:49:15;;;;;;;10.43;4.35;;;16.50;99.90;;;;;;4987785;28;20105;-89
2021/08/29 10:51:44;;;;;;;8.95;4.50;;;16.50;99.90;;;;;;4987809;28;20061;-88
2021/08/29 10:54:12;;;;;;;7.93;4.15;;;16.50;99.90;;;;;;4986071;28;20052;-90
2021/08/29 10:56:38;;;;;;;9.43;4.45;;;16.60;99.90;;;;;;4979176;28;20038;-85
2021/08/29 10:59:07;;;;;;;8.93;4.25;;;16.60;99.90;;;;;;5005701;28;20092;-87
2021/08/29 11:01:46;;;;;;;8.18;4.20;;;16.70;99.90;;;;;;4986177;28;20112;-88
2021/08/29 11:04:19;;;;;;;14.73;5.13;;;16.70;99.90;;;;;;4993231;28;20030;-88
2021/08/29 11:06:45;;;;;;;;;;;16.70;99.90;;;;;;5004613;28;20511;-89
2021/08/29 11:09:36;;;;;;;9.95;4.30;;;16.70;99.90;;;;;;5010525;28;19917;-88
2021/08/29 11:12:05;;;;;;;11.40;4.68;;;16.80;99.90;;;;;;4988103;28;20045;-87
2021/08/29 11:14:40;;;;;;;8.52;5.00;;;16.80;99.90;;;;;;5011161;28;20272;-88
2021/08/29 11:17:15;;;;;;;10.73;4.30;;;16.80;99.90;;;;;;4987123;28;20100;-89
2021/08/29 11:19:43;;;;;;;7.93;3.97;;;16.80;99.90;;;;;;4992011;28;20045;-90
2021/08/29 11:22:09;;;;;;;12.70;4.05;;;16.90;99.90;;;;;;4988392;28;20044;-89
2021/08/29 11:24:50;;;;;;;9.77;4.03;;;16.90;99.90;;;;;;4992297;28;20045;-87
2021/08/29 11:27:45;;;;;;;10.40;4.45;;;16.90;99.90;;;;;;4987571;28;20042;-87
2021/08/29 11:30:37;;;;;;;8.10;4.15;;;16.90;99.90;;;;;;4983155;28;20112;-89
2021/08/29 11:33:05;;;;;;;9.80;4.85;;;17.00;99.90;;;;;;4986649;28;20060;-89
2021/08/29 11:35:38;;;;;;;8.07;4.38;;;17.00;99.90;;;;;;4991789;28;20124;-88
2021/08/29 11:38:16;;;;;;;10.18;4.90;;;17.00;99.90;;;;;;5005928;28;20034;-88
2021/08/29 11:40:46;;;;;;;9.52;5.03;;;17.10;99.90;;;;;;4989417;28;20073;-89
2021/08/29 11:43:32;;;;;;;13.27;4.75;;;17.00;99.90;;;;;;4993552;28;20121;-87
2021/08/29 11:46:19;;;;;;;8.52;5.00;;;17.00;99.90;;;;;;4996110;28;20560;-91
2021/08/29 11:48:57;;;;;;;7.65;5.45;;;17.00;99.90;;;;;;4983942;28;20553;-88
2021/08/29 11:51:43;;;;;;;10.15;4.85;;;17.00;99.90;;;;;;4986750;28;20045;-88
2021/08/29 11:54:12;;;;;;;9.10;4.65;;;17.00;99.90;;;;;;4959651;28;20045;-88
2021/08/29 11:56:37;;;;;;;6.63;4.97;;;17.00;99.90;;;;;;4984734;28;20041;-88
2021/08/29 11:59:09;;;;;;;10.07;5.80;;;17.00;99.90;;;;;;4972109;28;20038;-89
2021/08/29 12:01:36;;;;;;;8.97;4.83;;;17.00;99.90;;;;;;5002575;28;20479;-87
2021/08/29 12:04:04;;;;;;;8.95;5.03;;;17.00;99.90;;;;;;4972373;28;20069;-87
2021/08/29 12:07:04;;;;;;;10.32;4.82;;;17.00;99.90;;;;;;4987355;28;20044;-88
2021/08/29 12:09:41;;;;;;;12.52;5.10;;;17.00;99.90;;;;;;4983979;28;20034;-87
2021/08/29 12:12:16;;;;;;;9.02;5.65;;;17.00;99.90;;;;;;4971653;28;20044;-90
2021/08/29 12:14:48;;;;;;;11.68;5.57;;;17.10;99.90;;;;;;5002754;28;20041;-87
2021/08/29 12:17:22;;;;;;;14.68;5.40;;;17.10;99.90;;;;;;5003868;28;20136;-90
2021/08/29 12:19:51;;;;;;;9.18;4.55;;;17.20;99.90;;;;;;4958410;28;20041;-89
2021/08/29 12:22:21;;;;;;;10.52;5.38;;;17.30;99.90;;;;;;4973111;28;20065;-90
2021/08/29 12:24:48;;;;;;;18.63;6.63;;;17.30;99.90;;;;;;5004637;28;20536;-89
2021/08/29 12:27:17;;;;;;;8.68;5.85;;;17.30;99.90;;;;;;4983573;28;20038;-89
2021/08/29 12:29:46;;;;;;;15.77;6.70;;;17.30;99.90;;;;;;5004049;28;20041;-88
2021/08/29 12:32:19;;;;;;;10.48;7.10;;;17.30;99.90;;;;;;4998742;28;20350;-89
2021/08/29 12:34:56;;;;;;;10.77;5.97;;;17.30;99.90;;;;;;4982732;28;20042;-88
2021/08/29 12:37:23;;;;;;;11.23;6.80;;;17.30;99.90;;;;;;4999729;28;20072;-89
2021/08/29 12:40:03;;;;;;;13.52;7.50;;;17.30;99.90;;;;;;4978163;28;20500;-90
2021/08/29 12:42:43;;;;;;;12.27;6.28;;;17.30;99.90;;;;;;5007599;28;20535;-90
2021/08/29 12:45:12;;;;;;;17.88;6.85;;;17.30;99.90;;;;;;4973296;28;20336;-90